Ana Sayfa
METAR-TAF:

METAR-TAF

Havaalanları :

Grootfontein, Namibya

Enlem: 19-36S, Boylam: 018-07E, yükseklik: 1411 m

Güncel hava durumu gözlemi

Rapor saat 15:00 UTC de 1 saat ve 1 dakika önce yapıldı.
Rüzgar batıdan 3 kt
Sıcaklık 34°C
Nem 22%
Basınç 1018 hPa
Görüş mesafesi 10 km veya daha fazla
1500 m altında bulut yok ve kümülonimbus yok

METAR: FYGF 151500Z 27003KT CAVOK 34/09 Q1018

Saat: 18:01 (16:01 UTC)

Tahmin

Rapor saat 14:00 UTC de 2 saat ve 1 dakika önce yapıldı.
Ayın 15'si saat 15 UTC'den ayın 16'si saat 00 UTC'ye kadar geçerli Tahmin
Rüzgar güneydan 4 kt
Görüş mesafesi 10 km veya daha fazla
1500 m altında bulut yok ve kümülonimbus yok
Dönüşüyor
ayın 15'si saat 15 UTC'den ayın 15'si saat 17 UTC'ye kadar
Rüzgar batıdan 5 kt
Dönüşüyor
ayın 15'si saat 19 UTC'den ayın 15'si saat 21 UTC'ye kadar
Rüzgar güney/güneybatıdan 8 kt

TAF: FYGF 151400Z 1515/1600 17004KT CAVOK BECMG 1515/1517 28005KT BECMG 1519/1521 21008KT

4.000'den fazla havaalanı için hava durumu gözlemleri ve tahminleri (METAR ve TAF raporları).

Kullanılabilir istasyonlar harita üzerinde sarı ve kırmızı noktalarla gösterilir.

İstasyonun adını görmek için fareyi noktanın üzerinde gezdirin.

Sonrasında hava gözlem ve tahminlerini görmek için tıklayın.

Haritayı değiştirmek için: yaklaştırmak için siyah artı işaretli yeşil düğmeye ve uzaklaştırmak için de eksi işaretli düğmeye hızla tıklayın; bitişik haritalar için yeşil okları kullanın.


METAR-TAF: